Time;durP1;ratioP1;P1;durP2;ratioP2;P2;SDS_P1;SDS_P2;PMS_P1;PMS_P2;Temp;Humidity;BMP_temperature;BMP_pressure;BME280_temperature;BME280_humidity;BME280_pressure;Samples;Min_cycle;Max_cycle;Signal;HPM_P1;HPM_P2
2023/05/16 00:01:47;;;;;;;29.17;17.00;;;;;;;19.14;69.29;98845.44;5053098;28;20233;-92
2023/05/16 00:04:13;;;;;;;27.07;15.50;;;;;;;19.21;69.05;98837.75;5055123;28;20210;-92
2023/05/16 00:06:40;;;;;;;25.10;14.57;;;;;;;19.23;68.41;98827.81;5054368;28;20182;-91
2023/05/16 00:09:10;;;;;;;25.47;15.93;;;;;;;19.18;68.70;98822.09;5054118;28;20914;-92
2023/05/16 00:11:37;;;;;;;27.73;15.80;;;;;;;19.14;68.64;98831.31;5053076;28;20264;-92
2023/05/16 00:14:04;;;;;;;27.40;14.43;;;;;;;19.01;68.95;98837.78;5054644;28;20304;-92
2023/05/16 00:16:31;;;;;;;23.83;14.80;;;;;;;19.08;68.85;98823.94;5054623;28;20170;-92
2023/05/16 00:18:59;;;;;;;30.33;15.67;;;;;;;19.02;68.86;98820.84;5053330;28;20182;-92
2023/05/16 00:21:30;;;;;;;23.60;13.30;;;;;;;18.98;68.59;98824.75;5070053;28;20181;-93
2023/05/16 00:23:57;;;;;;;24.03;13.60;;;;;;;18.94;68.56;98818.06;5053220;28;20562;-93
2023/05/16 00:26:25;;;;;;;23.67;14.10;;;;;;;18.97;68.13;98803.66;5054040;28;20212;-92
2023/05/16 00:28:52;;;;;;;24.90;13.37;;;;;;;18.94;68.06;98807.44;5069550;28;20269;-92
2023/05/16 00:31:18;;;;;;;21.20;13.43;;;;;;;18.81;68.41;98817.53;5052636;28;20262;-93
2023/05/16 00:33:45;;;;;;;22.83;13.17;;;;;;;18.80;68.69;98815.81;5069649;28;20177;-93
2023/05/16 00:36:12;;;;;;;26.03;12.87;;;;;;;18.73;68.66;98820.03;5053098;28;20529;-91
2023/05/16 00:38:39;;;;;;;21.10;13.07;;;;;;;18.66;69.06;98820.69;5052797;28;20222;-92
2023/05/16 00:41:05;;;;;;;19.07;11.57;;;;;;;18.67;69.21;98820.56;5053726;28;20181;-92
2023/05/16 00:43:32;;;;;;;21.43;11.90;;;;;;;18.68;69.12;98816.94;5053471;28;20241;-91
2023/05/16 00:45:59;;;;;;;25.63;11.80;;;;;;;18.69;69.17;98823.06;5053467;28;20270;-91
2023/05/16 00:48:27;;;;;;;18.27;11.03;;;;;;;18.72;68.75;98820.16;5052604;28;20222;-92
2023/05/16 00:50:53;;;;;;;20.90;11.60;;;;;;;18.76;68.03;98822.38;5068962;28;20603;-92
2023/05/16 00:53:20;;;;;;;19.43;10.43;;;;;;;18.84;67.60;98817.22;5053378;28;20201;-92
2023/05/16 00:55:47;;;;;;;16.57;10.10;;;;;;;18.81;67.40;98817.53;5052765;28;20179;-93
2023/05/16 00:58:15;;;;;;;20.63;11.03;;;;;;;18.83;67.35;98815.56;5053599;28;20170;-91
2023/05/16 01:00:41;;;;;;;23.70;11.90;;;;;;;18.74;67.11;98820.84;5052382;28;20247;-91
2023/05/16 01:03:10;;;;;;;18.23;10.47;;;;;;;18.70;67.23;98825.63;5053286;28;20202;-91
2023/05/16 01:05:37;;;;;;;22.10;11.60;;;;;;;18.71;67.31;98818.50;5053379;28;20189;-91
2023/05/16 01:08:04;;;;;;;18.07;10.50;;;;;;;18.61;67.34;98823.78;5052745;28;20221;-91
2023/05/16 01:10:39;;;;;;;16.13;9.87;;;;;;;18.58;67.52;98817.94;5052398;28;20177;-92
2023/05/16 01:13:47;;;;;;;19.43;9.67;;;;;;;18.54;67.65;98824.47;5051856;28;20185;-92
2023/05/16 01:16:30;;;;;;;18.23;10.10;;;;;;;18.53;67.37;98818.31;5007250;28;20209;-92
2023/05/16 01:19:15;;;;;;;16.30;9.53;;;;;;;18.50;67.27;98823.09;5015624;28;20201;-92
2023/05/16 01:22:15;;;;;;;18.77;10.13;;;;;;;18.45;67.54;98815.47;5028699;28;20193;-92
2023/05/16 01:24:41;;;;;;;16.83;9.80;;;;;;;18.42;67.55;98815.78;5051649;28;20191;-92
2023/05/16 01:27:10;;;;;;;14.17;8.87;;;;;;;18.38;67.55;98814.34;5051688;28;20296;-92
2023/05/16 01:29:37;;;;;;;14.10;8.80;;;;;;;18.33;67.59;98816.59;5051846;28;20681;-92
2023/05/16 01:32:04;;;;;;;18.47;9.97;;;;;;;18.33;67.68;98798.84;5051672;28;20309;-92
2023/05/16 01:34:30;;;;;;;12.97;8.73;;;;;;;18.32;67.67;98805.13;5016166;28;20556;-91
2023/05/16 01:37:20;;;;;;;13.17;8.50;;;;;;;18.31;67.71;98792.00;5009794;28;20285;-92
2023/05/16 01:40:00;;;;;;;18.87;9.53;;;;;;;18.26;67.53;98795.06;5051324;28;20193;-91
2023/05/16 01:42:42;;;;;;;16.80;9.67;;;;;;;18.27;67.73;98787.94;5052325;28;20166;-91
2023/05/16 01:45:22;;;;;;;15.83;9.93;;;;;;;18.23;67.77;98791.84;5049293;28;20181;-92
2023/05/16 01:48:00;;;;;;;14.93;8.73;;;;;;;18.25;68.06;98789.91;5051636;28;20298;-91
2023/05/16 01:50:31;;;;;;;15.27;9.77;;;;;;;18.28;67.89;98792.28;5052056;28;20182;-91
2023/05/16 01:53:21;;;;;;;19.50;10.40;;;;;;;18.29;67.91;98788.66;5051249;28;20193;-90
2023/05/16 01:56:00;;;;;;;17.73;9.87;;;;;;;18.30;67.94;98787.66;5051640;28;20201;-92
2023/05/16 01:58:29;;;;;;;18.73;11.10;;;;;;;18.30;67.84;98785.00;5055232;28;20181;-92
2023/05/16 02:01:02;;;;;;;19.87;12.20;;;;;;;18.26;67.88;98783.63;5046717;28;20699;-92
2023/05/16 02:03:30;;;;;;;21.13;12.00;;;;;;;18.17;68.17;98779.97;5037409;28;20170;-91
2023/05/16 02:05:57;;;;;;;19.30;11.53;;;;;;;18.12;68.51;98784.84;5037208;28;20194;-92
2023/05/16 02:08:25;;;;;;;19.53;11.27;;;;;;;18.10;68.52;98778.84;5044749;28;20201;-92
2023/05/16 02:10:55;;;;;;;19.53;11.60;;;;;;;18.16;68.61;98762.38;5056718;28;20206;-91
2023/05/16 02:13:22;;;;;;;20.77;11.50;;;;;;;18.17;68.20;98766.72;5056902;28;20181;-92
2023/05/16 02:15:49;;;;;;;21.33;10.20;;;;;;;18.08;68.57;98761.41;5056957;28;20260;-93
2023/05/16 02:18:17;;;;;;;19.80;11.10;;;;;;;17.92;69.52;98753.13;5047605;28;20209;-92
2023/05/16 02:20:44;;;;;;;19.50;10.57;;;;;;;17.86;69.91;98748.34;5049020;28;20188;-91
2023/05/16 02:23:11;;;;;;;18.93;10.10;;;;;;;17.88;69.96;98746.41;5044795;28;20203;-92
2023/05/16 02:25:38;;;;;;;17.87;10.57;;;;;;;17.85;69.80;98736.91;5055540;28;20193;-91
2023/05/16 02:28:05;;;;;;;23.00;10.57;;;;;;;17.87;69.79;98742.09;5054971;28;20212;-91
2023/05/16 02:30:32;;;;;;;19.13;10.17;;;;;;;17.86;69.89;98741.25;5055568;28;20251;-91
2023/05/16 02:32:59;;;;;;;15.77;9.47;;;;;;;17.82;70.16;98741.66;5054874;28;20194;-91
2023/05/16 02:35:26;;;;;;;14.80;9.80;;;;;;;17.84;69.95;98740.53;5037909;28;20524;-92
2023/05/16 02:37:52;;;;;;;18.33;8.43;;;;;;;17.89;69.91;98732.19;5039808;28;20200;-91
2023/05/16 02:40:19;;;;;;;12.70;8.10;;;;;;;17.88;69.55;98731.31;5056307;28;20186;-91
2023/05/16 02:42:46;;;;;;;14.47;8.30;;;;;;;17.84;69.23;98723.78;5056297;28;20179;-92
2023/05/16 02:45:13;;;;;;;18.63;7.83;;;;;;;17.84;69.60;98723.78;5056021;28;20169;-92
2023/05/16 02:47:40;;;;;;;14.80;7.57;;;;;;;17.76;69.35;98722.66;5055062;28;20201;-91
2023/05/16 02:50:07;;;;;;;13.60;7.10;;;;;;;17.70;69.74;98727.66;5056344;28;20631;-91
2023/05/16 02:52:34;;;;;;;13.90;8.67;;;;;;;17.63;69.80;98730.03;5056011;28;20631;-91
2023/05/16 02:55:01;;;;;;;14.30;8.10;;;;;;;17.56;69.99;98731.50;5055215;28;20224;-92
2023/05/16 02:57:27;;;;;;;16.53;7.50;;;;;;;17.54;70.17;98736.13;5055699;28;20177;-92
2023/05/16 02:59:54;;;;;;;17.67;9.97;;;;;;;17.53;70.60;98739.72;5056034;28;20264;-92
2023/05/16 03:02:21;;;;;;;15.63;8.30;;;;;;;17.53;70.37;98741.56;5054422;28;20241;-92
2023/05/16 03:04:47;;;;;;;12.17;7.07;;;;;;;17.59;70.21;98735.69;5056017;28;20186;-92
2023/05/16 03:07:14;;;;;;;13.30;8.37;;;;;;;17.59;70.08;98725.94;5042277;28;20542;-92
2023/05/16 03:09:41;;;;;;;12.73;7.37;;;;;;;17.58;69.82;98723.44;5040692;28;20659;-92
2023/05/16 03:12:08;;;;;;;14.97;8.43;;;;;;;17.61;69.50;98726.66;5055535;28;20185;-91
2023/05/16 03:14:35;;;;;;;15.03;8.30;;;;;;;17.63;69.49;98727.38;5036056;28;20546;-92
2023/05/16 03:17:01;;;;;;;15.93;7.60;;;;;;;17.64;69.20;98726.38;5039837;28;20178;-91
2023/05/16 03:19:28;;;;;;;12.20;8.13;;;;;;;17.62;69.20;98733.63;5054617;28;20646;-91
2023/05/16 03:21:55;;;;;;;13.00;7.93;;;;;;;17.61;69.01;98728.47;5055221;28;20643;-91
2023/05/16 03:24:22;;;;;;;13.50;8.20;;;;;;;17.59;69.24;98725.94;5055439;28;20603;-93
2023/05/16 03:26:49;;;;;;;12.63;7.80;;;;;;;17.58;69.20;98718.97;5054153;28;20178;-91
2023/05/16 03:29:15;;;;;;;16.07;8.13;;;;;;;17.60;69.17;98706.44;5054411;28;20191;-91
2023/05/16 03:31:42;;;;;;;17.00;8.70;;;;;;;17.63;69.03;98711.47;5054480;28;20192;-91
2023/05/16 03:34:09;;;;;;;14.87;8.10;;;;;;;17.65;68.95;98712.16;5071120;28;20187;-92
2023/05/16 03:36:37;;;;;;;14.67;8.53;;;;;;;17.60;69.70;98716.19;5070956;28;20243;-91
2023/05/16 03:39:04;;;;;;;12.17;7.97;;;;;;;17.58;69.65;98723.44;5054923;28;20178;-92
2023/05/16 03:41:31;;;;;;;14.93;8.40;;;;;;;17.56;70.19;98725.38;5053301;28;20185;-91
2023/05/16 03:43:58;;;;;;;17.30;7.63;;;;;;;17.52;70.35;98718.63;5055119;28;20174;-92
2023/05/16 03:46:25;;;;;;;12.57;7.23;;;;;;;17.45;70.57;98728.09;5054164;28;20668;-92
2023/05/16 03:48:52;;;;;;;16.93;8.23;;;;;;;17.55;70.52;98729.00;5047455;28;20597;-91
2023/05/16 03:51:20;;;;;;;14.20;8.37;;;;;;;17.62;70.30;98725.69;5052855;28;20268;-91
2023/05/16 03:53:47;;;;;;;14.00;8.00;;;;;;;17.69;70.23;98726.81;5054707;28;20553;-91
2023/05/16 03:56:14;;;;;;;13.10;8.10;;;;;;;17.70;70.39;98728.50;5054717;28;20180;-91
2023/05/16 03:58:41;;;;;;;13.20;8.50;;;;;;;17.68;71.20;98741.06;5048718;28;20630;-92
2023/05/16 04:01:08;;;;;;;15.00;9.43;;;;;;;17.69;71.57;98740.06;5044775;28;20234;-91
2023/05/16 04:03:35;;;;;;;15.27;8.67;;;;;;;17.70;71.57;98744.41;5048371;28;20694;-91
2023/05/16 04:06:01;;;;;;;12.10;8.27;;;;;;;17.77;71.64;98750.84;5045517;28;20182;-90
2023/05/16 04:08:28;;;;;;;13.30;8.23;;;;;;;17.77;71.58;98745.53;5053075;28;20213;-92
2023/05/16 04:10:55;;;;;;;18.77;8.97;;;;;;;17.91;70.93;98746.97;5048031;28;20197;-92
2023/05/16 04:13:22;;;;;;;14.40;8.03;;;;;;;17.90;71.65;98755.06;5032099;28;20273;-92
2023/05/16 04:15:49;;;;;;;14.20;7.80;;;;;;;17.91;71.56;98752.28;5034789;28;20589;-92
2023/05/16 04:18:16;;;;;;;9.90;6.93;;;;;;;18.04;71.23;98744.06;5044684;28;20201;-92
2023/05/16 04:20:46;;;;;;;14.77;8.03;;;;;;;18.05;71.17;98751.06;5038156;28;20623;-92
2023/05/16 04:23:13;;;;;;;12.77;7.87;;;;;;;18.03;71.85;98758.31;5053084;28;20244;-92
2023/05/16 04:28:33;;;;;;;14.67;7.70;;;;;;;18.25;70.52;98742.13;5049939;28;20268;-92
2023/05/16 04:31:00;;;;;;;13.43;7.43;;;;;;;18.25;70.81;98745.63;5034118;28;20170;-92
2023/05/16 04:33:27;;;;;;;15.23;8.10;;;;;;;18.30;70.88;98753.19;5042829;28;20680;-92
2023/05/16 04:35:54;;;;;;;12.83;7.30;;;;;;;18.31;70.49;98760.16;5054106;28;20188;-92
2023/05/16 04:38:21;;;;;;;11.97;7.33;;;;;;;18.42;69.44;98749.44;5053065;28;20193;-91
2023/05/16 04:40:49;;;;;;;12.73;7.63;;;;;;;18.51;69.14;98756.56;5053559;28;20178;-91
2023/05/16 04:43:17;;;;;;;16.27;9.03;;;;;;;18.50;69.64;98754.88;5053716;28;20712;-91
2023/05/16 04:45:44;;;;;;;14.40;7.83;;;;;;;18.51;69.96;98753.91;5053136;28;20633;-91
2023/05/16 04:48:11;;;;;;;12.60;8.10;;;;;;;18.57;69.43;98756.03;5052839;28;20222;-91
2023/05/16 04:50:37;;;;;;;14.53;8.77;;;;;;;18.69;69.16;98754.91;5053604;28;20185;-91
2023/05/16 04:53:04;;;;;;;14.63;8.40;;;;;;;18.76;68.86;98755.19;5053862;28;20186;-91
2023/05/16 04:55:30;;;;;;;11.37;7.20;;;;;;;18.80;69.62;98752.09;5053747;28;20219;-91
2023/05/16 04:57:57;;;;;;;15.93;8.83;;;;;;;18.90;69.27;98752.06;5053622;28;20203;-92
2023/05/16 05:00:25;;;;;;;15.50;7.43;;;;;;;19.02;68.52;98742.97;5053982;28;20205;-91
2023/05/16 05:02:52;;;;;;;15.37;8.03;;;;;;;19.09;68.14;98737.91;5052165;28;20660;-92
2023/05/16 05:05:19;;;;;;;10.83;7.10;;;;;;;19.19;67.22;98741.38;5053788;28;20189;-91
2023/05/16 05:07:47;;;;;;;13.60;8.00;;;;;;;19.21;67.10;98744.75;5052994;28;20195;-91
2023/05/16 05:10:12;;;;;;;12.50;7.30;;;;;;;19.28;66.74;98746.69;5053544;28;20177;-91
2023/05/16 05:12:38;;;;;;;11.17;6.80;;;;;;;19.34;66.74;98750.59;5053444;28;20188;-91
2023/05/16 05:15:04;;;;;;;11.37;6.57;;;;;;;19.41;66.65;98749.06;5053523;28;20292;-91
2023/05/16 05:17:29;;;;;;;11.63;6.93;;;;;;;19.46;66.75;98747.63;5069135;28;20210;-91
2023/05/16 05:19:55;;;;;;;13.43;8.07;;;;;;;19.52;67.05;98754.19;5053293;28;20598;-91
2023/05/16 05:22:20;;;;;;;10.23;6.63;;;;;;;19.45;66.57;98759.25;5052772;28;20541;-91
2023/05/16 05:24:46;;;;;;;12.73;6.97;;;;;;;19.43;66.66;98757.72;5052746;28;20187;-90
2023/05/16 05:27:11;;;;;;;12.93;6.00;;;;;;;19.62;66.39;98744.34;5051832;28;20196;-89
2023/05/16 05:29:37;;;;;;;10.33;6.50;;;;;;;19.74;66.27;98748.47;5052033;28;20196;-91
2023/05/16 05:32:03;;;;;;;12.60;6.83;;;;;;;19.91;65.67;98755.69;5051229;28;20177;-91
2023/05/16 05:34:29;;;;;;;10.63;6.23;;;;;;;20.07;66.54;98747.88;5051060;28;20185;-90
2023/05/16 05:36:55;;;;;;;13.80;6.77;;;;;;;20.28;65.78;98742.31;5051794;28;20685;-90
2023/05/16 05:39:21;;;;;;;12.67;6.43;;;;;;;20.39;64.54;98749.25;5052067;28;20568;-91
2023/05/16 05:41:46;;;;;;;12.63;7.03;;;;;;;20.44;64.73;98741.66;5052102;28;20196;-90
2023/05/16 05:44:11;;;;;;;10.03;6.70;;;;;;;20.57;64.36;98744.75;5053164;28;20242;-91
2023/05/16 05:46:37;;;;;;;9.20;5.77;;;;;;;20.67;63.97;98742.84;5069180;28;20182;-91
2023/05/16 05:49:03;;;;;;;10.37;6.27;;;;;;;20.68;62.63;98749.84;5053101;28;20283;-91
2023/05/16 05:51:28;;;;;;;12.93;6.17;;;;;;;20.66;62.05;98735.84;5053229;28;20712;-91
2023/05/16 05:53:54;;;;;;;11.97;6.70;;;;;;;20.66;62.62;98741.16;5053512;28;20177;-91
2023/05/16 05:56:20;;;;;;;12.07;6.50;;;;;;;20.58;62.73;98738.44;5053316;28;20235;-91
2023/05/16 05:58:46;;;;;;;12.93;6.07;;;;;;;20.61;62.94;98738.13;5051924;28;20185;-91
2023/05/16 06:01:11;;;;;;;15.07;6.50;;;;;;;20.59;63.00;98745.44;5052207;28;20662;-91
2023/05/16 06:03:37;;;;;;;10.80;5.73;;;;;;;20.63;63.37;98749.47;5053014;28;20253;-91
2023/05/16 06:06:03;;;;;;;13.80;6.73;;;;;;;20.69;63.55;98736.38;5052052;28;20181;-91
2023/05/16 06:08:29;;;;;;;10.00;6.07;;;;;;;20.77;63.48;98740.94;5052824;28;20212;-91
2023/05/16 06:10:54;;;;;;;14.43;6.90;;;;;;;20.80;63.57;98735.31;5051897;28;20589;-91
2023/05/16 06:13:20;;;;;;;10.93;6.53;;;;;;;20.82;63.45;98734.16;5051875;28;20178;-91
2023/05/16 06:15:50;;;;;;;13.80;6.87;;;;;;;20.78;63.82;98739.91;5053192;28;20173;-92
2023/05/16 06:18:16;;;;;;;15.63;7.17;;;;;;;20.80;63.42;98746.81;5053351;28;20181;-92
2023/05/16 06:20:41;;;;;;;10.80;6.33;;;;;;;20.82;63.13;98750.13;5052333;28;20196;-91
2023/05/16 06:23:07;;;;;;;9.80;6.37;;;;;;;20.74;62.63;98744.75;5051999;28;20188;-92
2023/05/16 06:25:32;;;;;;;13.00;6.33;;;;;;;20.68;63.24;98745.34;5051870;28;20261;-91
2023/05/16 06:27:58;;;;;;;12.80;7.73;;;;;;;20.69;63.73;98741.72;5051605;28;20643;-91
2023/05/16 06:30:23;;;;;;;12.03;7.17;;;;;;;20.70;63.99;98753.19;5068825;28;20185;-90
2023/05/16 06:32:49;;;;;;;10.73;6.50;;;;;;;20.60;65.14;98749.75;5052917;28;20186;-91
2023/05/16 06:35:14;;;;;;;12.87;6.70;;;;;;;20.59;65.02;98746.28;5052639;28;20252;-90
2023/05/16 06:37:40;;;;;;;12.37;7.47;;;;;;;20.77;63.54;98738.28;5052861;28;20257;-91
2023/05/16 06:40:06;;;;;;;11.80;7.30;;;;;;;20.74;63.99;98742.09;5052918;28;20181;-91
2023/05/16 06:42:31;;;;;;;10.30;6.30;;;;;;;20.72;64.04;98728.09;5052532;28;20185;-91
2023/05/16 06:44:57;;;;;;;12.93;6.63;;;;;;;20.81;64.45;98718.31;5054787;28;20646;-92
2023/05/16 06:47:23;;;;;;;11.97;6.50;;;;;;;20.91;64.41;98713.72;5055160;28;20202;-91
2023/05/16 06:49:49;;;;;;;13.17;7.43;;;;;;;20.91;64.13;98702.25;5056016;28;20264;-92
2023/05/16 06:52:15;;;;;;;10.23;6.73;;;;;;;20.88;64.62;98706.06;5057024;28;20277;-92
2023/05/16 06:54:40;;;;;;;14.10;7.37;;;;;;;20.83;64.95;98705.69;5056075;28;20640;-92
2023/05/16 06:57:07;;;;;;;12.33;6.60;;;;;;;20.69;65.50;98716.88;5056109;28;20240;-92
2023/05/16 06:59:33;;;;;;;20.37;7.63;;;;;;;20.51;66.15;98708.09;5056277;28;20181;-91
2023/05/16 07:02:00;;;;;;;13.20;8.00;;;;;;;20.68;65.58;98697.41;5055959;28;20222;-91
2023/05/16 07:04:26;;;;;;;10.43;5.90;;;;;;;20.87;65.35;98707.03;5055825;28;20186;-91
2023/05/16 07:06:52;;;;;;;13.43;6.93;;;;;;;20.91;66.05;98697.72;5056512;28;20259;-91
2023/05/16 07:09:18;;;;;;;13.67;6.67;;;;;;;21.06;63.87;98698.88;5055711;28;20280;-92
2023/05/16 07:11:43;;;;;;;9.47;6.27;;;;;;;21.10;64.02;98697.56;5055849;28;20178;-92
2023/05/16 07:14:09;;;;;;;16.20;7.03;;;;;;;21.06;65.22;98712.22;5055750;28;20178;-92
2023/05/16 07:16:35;;;;;;;15.63;6.47;;;;;;;21.17;64.27;98701.25;5055997;28;20177;-91
2023/05/16 07:19:00;;;;;;;11.27;6.37;;;;;;;21.21;64.76;98713.28;5055707;28;20174;-91
2023/05/16 07:21:26;;;;;;;11.63;5.67;;;;;;;21.04;64.77;98719.47;5054732;28;20178;-91
2023/05/16 07:23:51;;;;;;;11.97;5.80;;;;;;;21.21;64.23;98705.28;5055869;28;20235;-91
2023/05/16 07:26:17;;;;;;;8.00;5.13;;;;;;;21.35;64.33;98707.38;5054666;28;20255;-92
2023/05/16 07:28:42;;;;;;;8.33;5.43;;;;;;;21.47;64.12;98717.75;5055483;28;20212;-92
2023/05/16 07:31:08;;;;;;;7.47;5.17;;;;;;;21.54;63.37;98708.16;5055562;28;20539;-92
2023/05/16 07:33:33;;;;;;;11.83;4.63;;;;;;;21.49;63.61;98702.44;5055493;28;20184;-93
2023/05/16 07:36:00;;;;;;;9.47;4.90;;;;;;;21.75;62.54;98690.69;5055400;28;20646;-91
2023/05/16 07:38:25;;;;;;;11.83;5.53;;;;;;;21.69;62.60;98693.19;5055879;28;20192;-91
2023/05/16 07:40:51;;;;;;;16.83;5.93;;;;;;;21.56;62.49;98687.47;5055599;28;20194;-92
2023/05/16 07:43:17;;;;;;;9.97;5.73;;;;;;;21.82;61.81;98690.91;5054472;28;20186;-92
2023/05/16 07:45:42;;;;;;;9.30;5.50;;;;;;;21.83;62.73;98703.22;5055151;28;20680;-92
2023/05/16 07:48:08;;;;;;;9.90;5.37;;;;;;;21.98;62.45;98677.63;5054275;28;20213;-92
2023/05/16 07:50:34;;;;;;;11.33;5.37;;;;;;;22.11;61.64;98666.47;5055491;28;20307;-92
2023/05/16 07:52:59;;;;;;;9.50;5.87;;;;;;;22.15;61.55;98676.66;5054169;28;20169;-92
2023/05/16 07:55:25;;;;;;;10.87;5.73;;;;;;;22.28;60.95;98666.31;5053151;28;20244;-92
2023/05/16 07:57:50;;;;;;;9.17;5.60;;;;;;;22.40;60.67;98667.69;5053598;28;20513;-92
2023/05/16 08:00:17;;;;;;;9.60;5.87;;;;;;;22.36;60.52;98661.00;5053811;28;20209;-91
2023/05/16 08:02:42;;;;;;;9.53;5.57;;;;;;;22.30;60.62;98663.50;5053898;28;20304;-92
2023/05/16 08:05:08;;;;;;;9.47;5.60;;;;;;;22.35;61.34;98664.66;5070517;28;20224;-93
2023/05/16 08:07:34;;;;;;;14.33;5.60;;;;;;;22.42;61.83;98662.16;5054569;28;20205;-92
2023/05/16 08:09:59;;;;;;;12.17;5.20;;;;;;;22.57;62.44;98661.31;5050146;28;20186;-92
2023/05/16 08:12:26;;;;;;;11.00;5.33;;;;;;;22.73;61.22;98651.66;5052904;28;20186;-93
2023/05/16 08:14:51;;;;;;;9.90;4.70;;;;;;;22.73;61.06;98640.97;5054572;28;20282;-92
2023/05/16 08:17:17;;;;;;;13.40;6.17;;;;;;;22.76;61.08;98662.00;5054009;28;20252;-92
2023/05/16 08:19:42;;;;;;;13.40;5.77;;;;;;;22.46;60.04;98677.69;5054537;28;20173;-92
2023/05/16 08:22:08;;;;;;;10.80;5.30;;;;;;;22.48;61.45;98686.34;5054414;28;20181;-93
2023/05/16 08:24:34;;;;;;;10.80;4.80;;;;;;;22.48;61.03;98690.88;5053670;28;20209;-92
2023/05/16 08:27:00;;;;;;;10.40;5.20;;;;;;;22.81;60.17;98681.03;5052682;28;20249;-93
2023/05/16 08:29:25;;;;;;;14.50;6.13;;;;;;;22.92;58.48;98686.06;5053405;28;20649;-93
2023/05/16 08:31:51;;;;;;;8.67;5.17;;;;;;;22.75;60.66;98714.63;5054259;28;20242;-92
2023/05/16 08:34:17;;;;;;;13.20;5.60;;;;;;;22.95;61.15;98715.97;5053560;28;20716;-92
2023/05/16 08:36:42;;;;;;;11.37;5.50;;;;;;;22.75;60.81;98724.47;5054240;28;20174;-92
2023/05/16 08:39:10;;;;;;;10.90;5.60;;;;;;;23.07;60.87;98719.94;5053420;28;20238;-93
2023/05/16 08:41:36;;;;;;;7.70;5.13;;;;;;;23.29;60.01;98717.56;5054418;28;20178;-93
2023/05/16 08:44:02;;;;;;;7.60;4.70;;;;;;;23.59;58.41;98709.63;5053140;28;20181;-92
2023/05/16 08:46:28;;;;;;;9.17;4.80;;;;;;;23.52;54.66;98694.44;5054023;28;20250;-94
2023/05/16 08:48:59;;;;;;;7.73;4.87;;;;;;;23.36;55.30;98679.25;5053039;28;20296;-93
2023/05/16 08:51:27;;;;;;;6.73;4.03;;;;;;;23.92;53.84;98674.69;5053150;28;20254;-94
2023/05/16 08:54:05;;;;;;;8.53;4.33;;;;;;;24.13;53.95;98661.53;5069675;28;20513;-94
2023/05/16 08:56:32;;;;;;;6.73;4.37;;;;;;;24.43;55.65;98666.00;5054072;28;20189;-94
2023/05/16 08:58:59;;;;;;;14.10;4.17;;;;;;;24.59;53.69;98657.81;5052876;28;20210;-93
2023/05/16 09:01:25;;;;;;;7.40;4.13;;;;;;;24.83;53.00;98665.69;5052887;28;20237;-93
2023/05/16 09:03:56;;;;;;;7.33;3.87;;;;;;;24.91;52.44;98660.25;5052898;28;20653;-93
2023/05/16 09:06:21;;;;;;;7.97;3.90;;;;;;;25.14;51.32;98648.59;5052545;28;20689;-92
2023/05/16 09:08:47;;;;;;;7.50;4.47;;;;;;;25.15;52.24;98667.22;5052915;28;20197;-94
2023/05/16 09:11:13;;;;;;;7.57;4.43;;;;;;;25.43;50.34;98659.34;5052871;28;20567;-93
2023/05/16 09:13:39;;;;;;;9.23;4.93;;;;;;;25.39;49.31;98658.06;5052920;28;20203;-95
2023/05/16 09:16:13;;;;;;;8.33;4.00;;;;;;;25.46;51.10;98648.25;5052444;28;20185;-93
2023/05/16 09:18:42;;;;;;;11.43;4.67;;;;;;;25.71;49.68;98654.97;5052738;28;20182;-92
2023/05/16 09:21:14;;;;;;;9.00;4.80;;;;;;;25.89;50.49;98655.38;5053667;28;20178;-95
2023/05/16 09:23:44;;;;;;;6.70;4.00;;;;;;;25.78;49.99;98655.91;5053460;28;20205;-94
2023/05/16 09:26:09;;;;;;;7.63;3.97;;;;;;;26.01;52.82;98656.59;5052537;28;20325;-94
2023/05/16 09:28:47;;;;;;;7.20;4.20;;;;;;;26.31;48.59;98651.13;5052663;28;20754;-94
2023/05/16 09:31:25;;;;;;;5.87;3.73;;;;;;;26.34;47.96;98648.03;5053392;28;20201;-94
2023/05/16 09:33:54;;;;;;;8.40;4.32;;;;;;;26.58;48.12;98645.78;5053769;28;20161;-95
2023/05/16 09:36:20;;;;;;;8.57;4.22;;;;;;;26.65;49.39;98643.19;5052387;28;20185;-95
2023/05/16 09:38:48;;;;;;;6.85;3.35;;;;;;;26.77;45.48;98629.03;5052642;28;20185;-95
2023/05/16 09:41:14;;;;;;;7.47;3.90;;;;;;;26.93;44.74;98625.22;5052750;28;20598;-95
2023/05/16 09:43:44;;;;;;;8.07;3.60;;;;;;;26.95;45.44;98620.44;5052416;28;20280;-95
2023/05/16 09:46:24;;;;;;;8.68;3.60;;;;;;;26.94;44.70;98618.78;5069404;28;20162;-94
2023/05/16 09:48:50;;;;;;;8.82;3.60;;;;;;;27.01;44.31;98608.91;5052933;28;20193;-94
2023/05/16 09:51:26;;;;;;;8.10;3.80;;;;;;;27.13;44.20;98607.31;5053004;28;20182;-94
2023/05/16 09:53:59;;;;;;;7.32;3.95;;;;;;;27.17;44.40;98607.75;5069198;28;20196;-94
2023/05/16 09:56:25;;;;;;;5.90;3.55;;;;;;;27.16;45.09;98598.84;5052363;28;20706;-94
2023/05/16 09:58:56;;;;;;;7.32;4.05;;;;;;;27.10;45.01;98594.25;5055923;28;20181;-94
2023/05/16 10:01:25;;;;;;;8.00;3.83;;;;;;;27.01;44.91;98592.78;5052016;28;20193;-94
2023/05/16 10:03:50;;;;;;;9.07;3.97;;;;;;;26.72;44.58;98603.72;5052127;28;20184;-95
2023/05/16 10:06:19;;;;;;;8.45;3.60;;;;;;;26.67;45.96;98596.25;5051737;28;20186;-95
2023/05/16 10:08:49;;;;;;;10.85;4.13;;;;;;;26.70;48.00;98592.34;5051977;28;20205;-94
2023/05/16 10:11:20;;;;;;;8.38;4.53;;;;;;;26.66;47.49;98589.19;5052073;28;20190;-95
2023/05/16 10:13:51;;;;;;;9.18;4.55;;;;;;;26.75;46.50;98569.22;5053108;28;20173;-95
2023/05/16 10:16:20;;;;;;;7.35;4.15;;;;;;;26.89;45.62;98550.50;5051597;28;20182;-95
2023/05/16 10:18:53;;;;;;;6.95;4.22;;;;;;;26.86;45.85;98540.94;5052979;28;20178;-94
2023/05/16 10:21:24;;;;;;;8.15;4.00;;;;;;;26.83;46.98;98541.34;5055858;28;20268;-95
2023/05/16 10:23:51;;;;;;;11.38;4.40;;;;;;;26.68;47.16;98521.75;5056107;28;20267;-94
2023/05/16 10:26:17;;;;;;;9.15;3.78;;;;;;;26.51;48.24;98497.06;5055716;28;20185;-94
2023/05/16 10:28:43;;;;;;;7.97;4.45;;;;;;;26.35;48.55;98478.56;5055850;28;20669;-94
2023/05/16 10:31:13;;;;;;;7.20;4.07;;;;;;;26.20;49.49;98459.84;5055788;28;20178;-95
2023/05/16 10:33:43;;;;;;;8.02;4.13;;;;;;;26.17;49.38;98465.63;5055471;28;20217;-94
2023/05/16 10:36:10;;;;;;;7.72;4.20;;;;;;;26.06;50.38;98503.72;5055552;28;20174;-94
2023/05/16 10:38:38;;;;;;;11.85;4.30;;;;;;;26.30;50.57;98531.22;5055681;28;20665;-94
2023/05/16 10:41:04;;;;;;;6.22;4.03;;;;;;;26.65;49.61;98567.91;5055981;28;20178;-95
2023/05/16 10:43:31;;;;;;;9.07;3.72;;;;;;;26.41;49.08;98593.34;5054879;28;20201;-91
2023/05/16 10:46:02;;;;;;;6.32;3.60;;;;;;;26.77;49.84;98579.78;5055152;28;20185;-92
2023/05/16 10:48:31;;;;;;;7.75;4.25;;;;;;;27.11;49.35;98576.25;5055916;28;20209;-91
2023/05/16 10:50:57;;;;;;;6.15;3.78;;;;;;;27.41;48.07;98577.69;5055526;28;20190;-92
2023/05/16 10:53:34;;;;;;;9.32;4.30;;;;;;;27.64;47.54;98577.34;5055186;28;20607;-92
2023/05/16 10:56:00;;;;;;;8.82;3.65;;;;;;;27.37;46.14;98563.75;5055323;28;20191;-91
2023/05/16 10:58:37;;;;;;;9.38;3.90;;;;;;;27.47;47.44;98557.19;5055469;28;20251;-91
2023/05/16 11:01:24;;;;;;;7.15;3.45;;;;;;;27.56;45.88;98545.22;5055008;28;20181;-91
2023/05/16 11:03:58;;;;;;;11.38;3.97;;;;;;;27.60;47.47;98535.69;5055722;28;20186;-91
2023/05/16 11:06:29;;;;;;;5.60;3.13;;;;;;;27.72;47.02;98544.84;5055363;28;20193;-92
2023/05/16 11:09:09;;;;;;;8.55;3.70;;;;;;;27.17;47.66;98529.72;5055460;28;20263;-91
2023/05/16 11:11:51;;;;;;;6.18;3.60;;;;;;;27.28;46.23;98521.88;5055297;28;20180;-91
2023/05/16 11:14:38;;;;;;;9.05;3.97;;;;;;;27.49;46.08;98509.38;5055437;28;20181;-91
2023/05/16 11:17:06;;;;;;;6.97;4.25;;;;;;;27.58;45.60;98497.38;5072637;28;20170;-92
2023/05/16 11:19:39;;;;;;;5.95;3.53;;;;;;;27.69;46.45;98480.63;5055352;28;20520;-92
2023/05/16 11:22:17;;;;;;;5.80;3.22;;;;;;;27.93;45.90;98480.03;5055003;28;20184;-92
2023/05/16 11:25:04;;;;;;;6.97;3.38;;;;;;;28.23;45.48;98470.50;5055359;28;20177;-92
2023/05/16 11:27:32;;;;;;;6.50;3.10;;;;;;;28.31;45.82;98474.84;5055429;28;20244;-92
2023/05/16 11:30:03;;;;;;;10.93;4.20;;;;;;;28.09;44.46;98479.66;5053714;28;20185;-92
2023/05/16 11:32:29;;;;;;;5.78;3.83;;;;;;;28.11;44.26;98476.75;5054942;28;20178;-92
2023/05/16 11:34:55;;;;;;;6.43;3.58;;;;;;;28.18;45.67;98478.38;5054783;28;20178;-93